Kezdőlap
METAR-TAF:

METAR-TAF

Repülőterek :

Guilin, Kína

földrajzi szélesség: 25-20N, földrajzi hosszúság: 110-18E, magasság: 166 m

Jelenlegi meteorológiai megfigyelések

A jelentés 34 perccel ezelõtt készült, 17:00 UTC
Észak-északkeleti szél 4 kt
Hőmérséklet 10°C
Páratartalom 82%
Légköri nyomás 1022 hPa
Látótávolság 10 km, vagy több
felhőtlen 1500 m magasságban, és nincs gomolyfelhõ

METAR: ZGKL 251700Z 03002MPS CAVOK 10/07 Q1022 NOSIG

Idő: 01:34 (17:34 UTC)

Előrejelzés

A jelentés 8 órával és 25 perccel ezelõtt készült, 09:09 UTC
Az előrejelzés 25-én 12 óra UTC és 26-én 12 óra UTC között érvényes
Északkeleti szél 8 kt
Látótávolság 10 km, vagy több
Kevés felhő 3000 lábon
Szakadozott felhőzet 6000 lábon

TAF: ZGKL 250909Z 2512/2612 05004MPS 9999 FEW030 BKN060 TX18/2608Z TN08/2522Z

Meteorológiai megfigyelések és előrejelzések több, mint 4000 repülőtéren (METAR és TAF jelentéseket).

A térképen piros és sárga pontok jelzik az elérhető meteorológiai állomásokat.

Mozgassa az egeret a pont fölött, hogy megjelenjen az állomás neve.

Azután kattintson az időjárási megfigyelések és előrejelzések megtekintéséhez.

A térkép megváltoztatása: kattintson a fekete keresztel jelölt zöld gombra ráközelítéshez, a vonallal jelölt zöld gombra távolításhoz, vagy a zöld nyilakra a szomszédos térképek eléréséhez.


METAR-TAF: